Time;durP1;ratioP1;P1;durP2;ratioP2;P2;SDS_P1;SDS_P2;PMS_P1;PMS_P2;Temp;Humidity;BMP_temperature;BMP_pressure;BME280_temperature;BME280_humidity;BME280_pressure;Samples;Min_cycle;Max_cycle;Signal;HPM_P1;HPM_P2
2022/12/24 00:01:24;;;;;;;;;;;;;;;17.87;45.95;100613.19;5096058;28;1196;-47
2022/12/24 00:03:49;;;;;;;;;;;;;;;17.20;46.16;100611.63;5095775;28;1902;-48
2022/12/24 00:06:17;;;;;;;;;;;;;;;18.03;45.80;100613.91;5096002;28;1066;-47
2022/12/24 00:08:42;;;;;;;;;;;;;;;17.41;46.44;100615.09;5096535;28;1110;-48
2022/12/24 00:11:08;;;;;;;;;;;;;;;18.62;44.81;100614.75;5095829;28;887;-45
2022/12/24 00:13:33;;;;;;;;;;;;;;;18.97;43.47;100612.72;5094441;28;1863;-47
2022/12/24 00:15:59;;;;;;;;;;;;;;;17.62;45.96;100613.06;5096221;28;1078;-42
2022/12/24 00:18:24;;;;;;;;;;;;;;;17.96;46.16;100617.00;5095513;28;1138;-49
2022/12/24 00:20:50;;;;;;;;;;;;;;;17.75;46.11;100616.28;5095939;28;1058;-45
2022/12/24 00:23:15;;;;;;;;;;;;;;;18.95;43.84;100624.06;5093905;28;892;-48
2022/12/24 00:25:41;;;;;;;;;;;;;;;19.80;41.77;100620.78;5099666;28;1909;-48
2022/12/24 00:28:06;;;;;;;;;;;;;;;18.06;45.14;100625.19;5100144;28;1185;-46
2022/12/24 00:30:32;;;;;;;;;;;;;;;17.47;45.71;100621.41;5099809;28;1109;-49
2022/12/24 00:32:57;;;;;;;;;;;;;;;18.42;45.06;100616.59;5099675;28;1055;-47
2022/12/24 00:35:23;;;;;;;;;;;;;;;17.58;46.01;100624.91;5099298;28;872;-50
2022/12/24 00:37:48;;;;;;;;;;;;;;;18.55;44.78;100622.53;5099318;28;1084;-44
2022/12/24 00:40:14;;;;;;;;;;;;;;;18.88;43.67;100625.53;5099124;28;1024;-49
2022/12/24 00:42:40;;;;;;;;;;;;;;;17.67;45.75;100616.88;5099743;28;1082;-49
2022/12/24 00:45:05;;;;;;;;;;;;;;;17.15;46.27;100605.34;5091484;28;2522;-48
2022/12/24 00:47:31;;;;;;;;;;;;;;;18.32;45.50;100621.38;5098556;28;971;-49
2022/12/24 00:49:56;;;;;;;;;;;;;;;17.68;46.02;100605.59;5105851;28;957;-44
2022/12/24 00:52:21;;;;;;;;;;;;;;;17.30;46.22;100608.03;5099299;28;1133;-45
2022/12/24 00:54:47;;;;;;;;;;;;;;;18.04;45.86;100610.06;5098679;28;1081;-47
2022/12/24 00:57:12;;;;;;;;;;;;;;;17.65;46.38;100602.59;5084534;28;1062;-49
2022/12/24 00:59:38;;;;;;;;;;;;;;;17.06;46.47;100610.59;5099258;28;932;-48
2022/12/24 01:02:03;;;;;;;;;;;;;;;18.67;44.44;100606.44;5098959;28;1118;-47
2022/12/24 01:07:13;;;;;;;;;;;;;;;18.19;45.55;100596.16;5098630;28;1019;-44
2022/12/24 01:09:38;;;;;;;;;;;;;;;17.93;45.65;100588.13;5099546;28;1185;-46
2022/12/24 01:12:03;;;;;;;;;;;;;;;17.14;46.60;100590.78;5098919;28;1205;-47
2022/12/24 01:14:29;;;;;;;;;;;;;;;18.84;43.82;100586.69;5098718;28;2501;-48
2022/12/24 01:16:54;;;;;;;;;;;;;;;17.43;46.39;100590.91;5098841;28;1046;-44
2022/12/24 01:19:20;;;;;;;;;;;;;;;18.90;43.93;100587.47;5098892;28;1129;-48
2022/12/24 01:21:45;;;;;;;;;;;;;;;18.52;44.21;100587.31;5096009;28;998;-46
2022/12/24 01:24:14;;;;;;;;;;;;;;;17.54;45.97;100594.41;5088573;28;1967;-46
2022/12/24 01:26:39;;;;;;;;;;;;;;;17.81;46.15;100589.56;5099083;28;1046;-46
2022/12/24 01:29:05;;;;;;;;;;;;;;;17.72;45.90;100589.34;5099184;28;1269;-44
2022/12/24 01:31:30;;;;;;;;;;;;;;;17.84;46.17;100588.97;5098047;28;1149;-43
2022/12/24 01:33:56;;;;;;;;;;;;;;;19.30;42.75;100582.56;5097773;28;1107;-43
2022/12/24 01:36:21;;;;;;;;;;;;;;;17.61;46.07;100580.34;5097456;28;1073;-48
2022/12/24 01:38:46;;;;;;;;;;;;;;;17.30;45.94;100569.53;5098126;28;1194;-45
2022/12/24 01:44:15;;;;;;;;;;;;;;;17.18;46.48;100577.31;5090308;28;2404;-47
2022/12/24 01:46:40;;;;;;;;;;;;;;;19.40;42.81;100584.34;5086294;28;961;-47
2022/12/24 01:49:07;;;;;;;;;;;;;;;18.17;45.06;100583.81;5098031;28;1097;-48
2022/12/24 01:51:37;;;;;;;;;;;;;;;17.53;45.74;100578.19;5097006;28;1019;-49
2022/12/24 01:54:03;;;;;;;;;;;;;;;17.18;45.60;100574.56;5096447;28;1038;-45
2022/12/24 01:56:29;;;;;;;;;;;;;;;18.58;44.66;100580.63;5096859;28;1181;-44
2022/12/24 01:58:55;;;;;;;;;;;;;;;17.32;46.71;100580.25;5097755;28;1011;-43
2022/12/24 02:01:21;;;;;;;;;;;;;;;17.31;46.99;100579.44;5098114;28;1008;-46
2022/12/24 02:03:46;;;;;;;;;;;;;;;18.05;45.44;100575.94;5096898;28;1980;-48
2022/12/24 02:06:14;;;;;;;;;;;;;;;17.21;46.22;100571.25;5097706;28;1086;-48
2022/12/24 02:08:39;;;;;;;;;;;;;;;19.19;43.30;100579.13;5096080;28;1139;-47
2022/12/24 02:11:23;;;;;;;;;;;;;;;17.84;45.97;100573.31;5098013;28;914;-45
2022/12/24 02:13:53;;;;;;;;;;;;;;;17.24;46.06;100576.19;5097096;28;2407;-46
2022/12/24 02:16:25;;;;;;;;;;;;;;;18.50;44.91;100573.03;5097924;28;1131;-48
2022/12/24 02:18:50;;;;;;;;;;;;;;;17.40;46.45;100564.00;5096959;28;1150;-44
2022/12/24 02:21:22;;;;;;;;;;;;;;;16.99;46.26;100571.63;5097338;28;1077;-44
2022/12/24 02:24:06;;;;;;;;;;;;;;;18.22;45.38;100572.75;5097768;28;1976;-42
2022/12/24 02:26:50;;;;;;;;;;;;;;;17.13;46.67;100574.59;5097202;28;1089;-47
2022/12/24 02:29:34;;;;;;;;;;;;;;;18.70;44.49;100578.31;5097876;28;1170;-44
2022/12/24 02:32:01;;;;;;;;;;;;;;;17.31;46.54;100581.38;5097598;28;1058;-48
2022/12/24 02:34:26;;;;;;;;;;;;;;;18.13;45.62;100575.28;5095666;28;1133;-48
2022/12/24 02:36:57;;;;;;;;;;;;;;;18.10;45.21;100570.38;5097487;28;1038;-47
2022/12/24 02:39:24;;;;;;;;;;;;;;;17.21;46.45;100571.25;5095504;28;1130;-44
2022/12/24 02:42:05;;;;;;;;;;;;;;;19.30;42.90;100575.09;5097612;28;975;-48
2022/12/24 02:44:33;;;;;;;;;;;;;;;17.52;46.21;100565.59;5088433;28;2275;-49
2022/12/24 02:46:58;;;;;;;;;;;;;;;17.19;46.01;100563.28;5095957;28;1122;-48
2022/12/24 02:49:24;;;;;;;;;;;;;;;18.74;44.14;100575.78;5095848;28;1122;-50
2022/12/24 02:51:49;;;;;;;;;;;;;;;17.40;46.25;100580.50;5096619;28;1122;-49
2022/12/24 02:54:15;;;;;;;;;;;;;;;18.64;44.67;100569.28;5096791;28;1014;-47
2022/12/24 02:56:40;;;;;;;;;;;;;;;18.27;44.89;100576.28;5095999;28;1015;-46
2022/12/24 02:59:24;;;;;;;;;;;;;;;17.40;45.96;100575.00;5093588;28;1034;-49
2022/12/24 03:01:59;;;;;;;;;;;;;;;18.54;44.76;100576.84;5095965;28;1003;-49
2022/12/24 03:04:40;;;;;;;;;;;;;;;17.51;46.24;100580.44;5095179;28;1909;-47
2022/12/24 03:07:26;;;;;;;;;;;;;;;18.59;44.73;100582.28;5096472;28;1130;-48
2022/12/24 03:09:56;;;;;;;;;;;;;;;18.17;45.09;100583.81;5096368;28;1043;-46
2022/12/24 03:12:35;;;;;;;;;;;;;;;17.28;46.12;100593.75;5096723;28;928;-49
2022/12/24 03:15:01;;;;;;;;;;;;;;;18.55;44.46;100584.81;5095122;28;2538;-49
2022/12/24 03:17:26;;;;;;;;;;;;;;;17.41;46.32;100587.63;5096540;28;1134;-49
2022/12/24 03:19:52;;;;;;;;;;;;;;;18.81;44.22;100577.06;5097040;28;1118;-49
2022/12/24 03:22:17;;;;;;;;;;;;;;;18.15;45.09;100577.78;5095248;28;1175;-47
2022/12/24 03:24:42;;;;;;;;;;;;;;;17.19;46.57;100574.25;5096597;28;1886;-46
2022/12/24 03:27:08;;;;;;;;;;;;;;;17.15;46.42;100572.38;5096745;28;1061;-44
2022/12/24 03:29:33;;;;;;;;;;;;;;;18.00;45.65;100571.28;5095105;28;1059;-50
2022/12/24 03:31:59;;;;;;;;;;;;;;;17.23;46.38;100566.28;5096320;28;1133;-49
2022/12/24 03:34:25;;;;;;;;;;;;;;;19.19;43.08;100575.56;5095367;28;1066;-47
2022/12/24 03:36:50;;;;;;;;;;;;;;;17.99;45.59;100580.63;5096006;28;835;-48
2022/12/24 03:39:16;;;;;;;;;;;;;;;17.36;45.88;100576.69;5095756;28;1047;-48
2022/12/24 03:41:41;;;;;;;;;;;;;;;17.88;45.88;100582.63;5096182;28;1186;-48
2022/12/24 03:44:07;;;;;;;;;;;;;;;17.83;45.85;100588.16;5088163;28;2461;-45
2022/12/24 03:46:32;;;;;;;;;;;;;;;17.23;46.03;100577.28;5096357;28;1101;-48
2022/12/24 03:48:58;;;;;;;;;;;;;;;19.04;43.36;100587.59;5090235;28;904;-47
2022/12/24 03:51:23;;;;;;;;;;;;;;;17.57;46.10;100582.88;5095644;28;1093;-46
2022/12/24 03:53:50;;;;;;;;;;;;;;;17.19;46.73;100574.25;5095959;28;1047;-46
2022/12/24 03:56:16;;;;;;;;;;;;;;;18.27;44.94;100570.78;5096090;28;1130;-46
2022/12/24 03:58:41;;;;;;;;;;;;;;;17.18;46.59;100578.13;5095130;28;1031;-49
2022/12/24 04:01:07;;;;;;;;;;;;;;;18.16;45.59;100579.41;5096328;28;1098;-45
2022/12/24 04:03:32;;;;;;;;;;;;;;;17.61;46.29;100574.84;5095149;28;1986;-48
2022/12/24 04:06:01;;;;;;;;;;;;;;;17.34;47.27;100581.63;5096526;28;1201;-43
2022/12/24 04:08:27;;;;;;;;;;;;;;;18.66;44.06;100582.75;5096150;28;1141;-47
2022/12/24 04:10:52;;;;;;;;;;;;;;;17.48;46.09;100576.31;5095766;28;1050;-47
2022/12/24 04:13:17;;;;;;;;;;;;;;;19.06;43.50;100579.84;5095387;28;2341;-42
2022/12/24 04:15:43;;;;;;;;;;;;;;;18.08;45.19;100573.41;5095752;28;1129;-46
2022/12/24 04:18:08;;;;;;;;;;;;;;;17.37;45.98;100586.53;5095860;28;1070;-47
2022/12/24 04:20:34;;;;;;;;;;;;;;;18.64;44.35;100585.81;5096209;28;1114;-49
2022/12/24 04:22:59;;;;;;;;;;;;;;;17.56;45.92;100583.16;5095178;28;1389;-47
2022/12/24 04:25:24;;;;;;;;;;;;;;;17.28;45.78;100591.00;5095943;28;1917;-43
2022/12/24 04:27:50;;;;;;;;;;;;;;;17.14;45.67;100590.78;5095818;28;1087;-46
2022/12/24 04:30:15;;;;;;;;;;;;;;;17.60;46.01;100596.03;5095659;28;1043;-43
2022/12/24 04:32:41;;;;;;;;;;;;;;;17.12;46.52;100592.19;5096039;28;1146;-42
2022/12/24 04:35:06;;;;;;;;;;;;;;;19.12;43.33;100590.50;5095103;28;1023;-44
2022/12/24 04:37:32;;;;;;;;;;;;;;;17.73;45.73;100591.81;5095529;28;1046;-40
2022/12/24 04:39:57;;;;;;;;;;;;;;;17.12;46.41;100592.19;5095793;28;1177;-46
2022/12/24 04:42:23;;;;;;;;;;;;;;;18.00;45.63;100587.78;5095643;28;1158;-41
2022/12/24 04:44:48;;;;;;;;;;;;;;;17.51;46.27;100591.41;5088129;28;2630;-43
2022/12/24 04:47:14;;;;;;;;;;;;;;;18.60;44.63;100590.25;5095270;28;1078;-44
2022/12/24 04:49:39;;;;;;;;;;;;;;;19.07;43.06;100595.25;5095411;28;1022;-45
2022/12/24 04:52:05;;;;;;;;;;;;;;;17.70;45.84;100597.91;5095805;28;1045;-47
2022/12/24 04:54:30;;;;;;;;;;;;;;;17.27;45.88;100590.16;5095051;28;1136;-45
2022/12/24 04:56:55;;;;;;;;;;;;;;;17.15;45.03;100588.84;5095195;28;995;-52
2022/12/24 04:59:21;;;;;;;;;;;;;;;17.72;45.65;100590.16;5094991;28;1122;-42
2022/12/24 05:01:46;;;;;;;;;;;;;;;17.61;46.23;100592.19;5095399;28;1002;-42
2022/12/24 05:04:12;;;;;;;;;;;;;;;17.08;46.09;100592.75;5095237;28;1906;-43
2022/12/24 05:06:37;;;;;;;;;;;;;;;18.12;45.38;100591.00;5095123;28;1085;-50
2022/12/24 05:09:03;;;;;;;;;;;;;;;17.26;46.69;100584.97;5095796;28;1169;-44
2022/12/24 05:11:29;;;;;;;;;;;;;;;18.29;45.30;100593.31;5096204;28;1091;-44
2022/12/24 05:13:54;;;;;;;;;;;;;;;18.57;44.14;100601.06;5090632;28;2403;-48
2022/12/24 05:16:20;;;;;;;;;;;;;;;17.43;46.26;100601.06;5093755;28;1115;-48
2022/12/24 05:18:45;;;;;;;;;;;;;;;17.08;46.11;100600.16;5098972;28;1162;-46
2022/12/24 05:21:14;;;;;;;;;;;;;;;18.16;45.53;100595.91;5099095;28;1113;-47
2022/12/24 05:26:28;;;;;;;;;;;;;;;17.09;47.04;100596.31;5086795;28;1002;-45
2022/12/24 05:28:54;;;;;;;;;;;;;;;18.27;44.93;100608.47;5098489;28;1047;-46
2022/12/24 05:31:19;;;;;;;;;;;;;;;17.23;46.35;100607.50;5098941;28;1474;-48
2022/12/24 05:33:45;;;;;;;;;;;;;;;18.88;43.71;100611.75;5098870;28;1081;-48
2022/12/24 05:36:10;;;;;;;;;;;;;;;17.83;45.77;100603.88;5098086;28;1103;-50
2022/12/24 05:38:36;;;;;;;;;;;;;;;17.22;46.14;100601.19;5098378;28;1270;-52
2022/12/24 05:41:01;;;;;;;;;;;;;;;18.41;44.54;100609.47;5098543;28;1030;-53
2022/12/24 05:43:27;;;;;;;;;;;;;;;17.36;46.16;100615.16;5098268;28;1049;-52
2022/12/24 05:45:56;;;;;;;;;;;;;;;18.10;45.48;100612.50;5098704;28;1972;-53
2022/12/24 05:48:22;;;;;;;;;;;;;;;17.85;45.49;100615.38;5098748;28;1194;-54
2022/12/24 05:50:48;;;;;;;;;;;;;;;17.16;46.24;100613.31;5098640;28;1090;-51
2022/12/24 05:53:13;;;;;;;;;;;;;;;19.11;43.07;100626.63;5098480;28;1196;-52
2022/12/24 05:55:38;;;;;;;;;;;;;;;17.50;46.26;100611.75;5098275;28;1082;-52
2022/12/24 05:58:04;;;;;;;;;;;;;;;17.88;45.84;100617.56;5097712;28;1081;-54
2022/12/24 06:00:29;;;;;;;;;;;;;;;18.07;45.20;100615.78;5099060;28;1098;-53
2022/12/24 06:02:55;;;;;;;;;;;;;;;17.36;46.19;100615.16;5098374;28;1073;-51
2022/12/24 06:05:20;;;;;;;;;;;;;;;18.30;45.13;100625.25;5097957;28;1990;-53
2022/12/24 06:07:45;;;;;;;;;;;;;;;17.35;46.26;100619.00;5098080;28;1122;-51
2022/12/24 06:10:11;;;;;;;;;;;;;;;17.58;46.23;100619.41;5098821;28;1205;-48
2022/12/24 06:12:36;;;;;;;;;;;;;;;18.28;44.76;100623.88;5097644;28;1054;-51
2022/12/24 06:15:02;;;;;;;;;;;;;;;17.37;45.92;100622.28;5098197;28;1216;-49
2022/12/24 06:17:27;;;;;;;;;;;;;;;19.13;42.91;100619.72;5098491;28;1078;-51
2022/12/24 06:19:53;;;;;;;;;;;;;;;18.01;45.01;100627.97;5097933;28;1437;-50
2022/12/24 06:22:18;;;;;;;;;;;;;;;17.42;46.51;100613.19;5097518;28;1049;-52
2022/12/24 06:24:43;;;;;;;;;;;;;;;18.63;44.02;100610.88;5097569;28;1980;-47
2022/12/24 06:27:09;;;;;;;;;;;;;;;17.61;46.44;100610.59;5097298;28;1034;-49
2022/12/24 06:29:34;;;;;;;;;;;;;;;17.56;46.33;100610.66;5098199;28;1091;-52
2022/12/24 06:32:00;;;;;;;;;;;;;;;17.26;46.84;100615.19;5097437;28;1138;-50
2022/12/24 06:34:25;;;;;;;;;;;;;;;16.97;47.79;100621.34;5097345;28;1125;-48
2022/12/24 06:36:51;;;;;;;;;;;;;;;16.82;47.93;100621.38;5097176;28;1073;-51
2022/12/24 06:39:16;;;;;;;;;;;;;;;16.56;48.60;100624.16;5082507;28;1719;-51
2022/12/24 06:41:41;;;;;;;;;;;;;;;16.41;48.88;100623.09;5097848;28;1158;-51
2022/12/24 06:44:07;;;;;;;;;;;;;;;16.28;49.02;100626.38;5097401;28;1902;-54
2022/12/24 06:46:33;;;;;;;;;;;;;;;16.10;49.33;100624.19;5097443;28;1137;-51
2022/12/24 06:48:58;;;;;;;;;;;;;;;16.00;49.63;100633.25;5096821;28;1039;-52
2022/12/24 06:51:24;;;;;;;;;;;;;;;15.89;49.69;100636.00;5097631;28;1018;-52
2022/12/24 06:53:49;;;;;;;;;;;;;;;15.76;49.98;100633.72;5097525;28;1078;-50
2022/12/24 06:56:14;;;;;;;;;;;;;;;15.67;50.36;100643.56;5097683;28;1099;-51
2022/12/24 06:58:40;;;;;;;;;;;;;;;15.55;50.44;100641.91;5096799;28;1019;-48
2022/12/24 07:01:06;;;;;;;;;;;;;;;15.46;50.72;100642.69;5097066;28;1154;-49
2022/12/24 07:03:31;;;;;;;;;;;;;;;15.35;50.77;100642.66;5096989;28;1161;-50
2022/12/24 07:05:57;;;;;;;;;;;;;;;16.67;48.14;100644.19;5097597;28;1976;-53
2022/12/24 07:08:22;;;;;;;;;;;;;;;16.56;47.99;100646.97;5096992;28;1042;-51
2022/12/24 07:10:48;;;;;;;;;;;;;;;15.94;49.40;100643.38;5096606;28;1042;-53
2022/12/24 07:13:14;;;;;;;;;;;;;;;15.69;50.41;100658.66;5096777;28;1174;-54
2022/12/24 07:15:39;;;;;;;;;;;;;;;15.53;50.67;100648.75;5097055;28;1113;-51
2022/12/24 07:18:05;;;;;;;;;;;;;;;16.62;48.09;100645.03;5096590;28;1042;-49
2022/12/24 07:20:30;;;;;;;;;;;;;;;16.93;47.16;100642.25;5096552;28;1129;-49
2022/12/24 07:22:56;;;;;;;;;;;;;;;16.13;49.12;100645.59;5097016;28;1062;-47
2022/12/24 07:25:21;;;;;;;;;;;;;;;15.83;49.94;100641.72;5096431;28;1917;-50
2022/12/24 07:27:47;;;;;;;;;;;;;;;15.62;50.32;100649.88;5096584;28;1098;-46
2022/12/24 07:30:12;;;;;;;;;;;;;;;16.60;48.05;100633.50;5096685;28;1115;-46
2022/12/24 07:32:38;;;;;;;;;;;;;;;17.01;46.85;100644.44;5096516;28;1145;-49
2022/12/24 07:35:03;;;;;;;;;;;;;;;16.17;48.75;100641.19;5096891;28;1120;-50
2022/12/24 07:37:29;;;;;;;;;;;;;;;15.84;49.61;100638.72;5096572;28;1033;-51
2022/12/24 07:39:54;;;;;;;;;;;;;;;15.96;49.57;100641.19;5096291;28;1173;-50
2022/12/24 07:42:19;;;;;;;;;;;;;;;17.35;46.09;100634.66;5096996;28;1081;-51
2022/12/24 07:44:45;;;;;;;;;;;;;;;16.35;48.16;100637.09;5095673;28;1909;-51
2022/12/24 07:47:10;;;;;;;;;;;;;;;15.96;49.19;100632.97;5096970;28;1058;-51
2022/12/24 07:49:36;;;;;;;;;;;;;;;15.71;49.88;100634.56;5096024;28;1070;-51
2022/12/24 07:52:02;;;;;;;;;;;;;;;15.53;50.51;100637.81;5096663;28;1130;-51
2022/12/24 07:54:27;;;;;;;;;;;;;;;16.49;48.07;100640.09;5096582;28;1162;-50
2022/12/24 07:56:53;;;;;;;;;;;;;;;17.16;46.29;100635.28;5096747;28;1038;-50
2022/12/24 07:59:19;;;;;;;;;;;;;;;16.15;48.86;100632.44;5096758;28;1170;-51
2022/12/24 08:01:44;;;;;;;;;;;;;;;15.78;49.90;100623.34;5095848;28;1014;-50
2022/12/24 08:04:10;;;;;;;;;;;;;;;15.60;50.20;100635.63;5095927;28;2028;-51
2022/12/24 08:06:35;;;;;;;;;;;;;;;16.37;48.24;100624.75;5096506;28;1142;-51
2022/12/24 08:09:00;;;;;;;;;;;;;;;17.04;46.40;100627.38;5096035;28;1214;-50
2022/12/24 08:11:26;;;;;;;;;;;;;;;16.09;48.98;100626.13;5096223;28;1252;-51
2022/12/24 08:13:52;;;;;;;;;;;;;;;15.80;49.52;100625.81;5096079;28;1173;-49
2022/12/24 08:16:17;;;;;;;;;;;;;;;15.60;50.12;100632.88;5096158;28;1022;-51
2022/12/24 08:18:42;;;;;;;;;;;;;;;15.46;50.28;100629.00;5096359;28;1206;-49
2022/12/24 08:21:08;;;;;;;;;;;;;;;16.75;47.58;100627.97;5096305;28;1231;-50
2022/12/24 08:23:34;;;;;;;;;;;;;;;16.69;47.27;100615.38;5096079;28;1193;-51
2022/12/24 08:25:59;;;;;;;;;;;;;;;15.94;49.35;100612.41;5095700;28;1965;-50
2022/12/24 08:28:25;;;;;;;;;;;;;;;15.65;49.81;100613.69;5096203;28;1181;-52
2022/12/24 08:30:50;;;;;;;;;;;;;;;15.51;50.23;100618.06;5095875;28;1118;-47
2022/12/24 08:33:16;;;;;;;;;;;;;;;17.02;46.60;100604.84;5095362;28;1047;-50
2022/12/24 08:35:51;;;;;;;;;;;;;;;16.73;47.02;100610.97;5095343;28;1134;-49
2022/12/24 08:38:17;;;;;;;;;;;;;;;16.01;49.18;100611.03;5090149;28;1198;-49
2022/12/24 08:40:42;;;;;;;;;;;;;;;15.72;49.70;100603.31;5096336;28;1102;-49
2022/12/24 08:43:08;;;;;;;;;;;;;;;16.04;48.98;100604.19;5095717;28;1103;-49
2022/12/24 08:45:33;;;;;;;;;;;;;;;17.30;46.03;100602.53;5099575;28;1914;-50
2022/12/24 08:47:59;;;;;;;;;;;;;;;16.25;48.44;100605.81;5099485;28;1145;-49
2022/12/24 08:50:24;;;;;;;;;;;;;;;15.89;49.39;100604.97;5099121;28;1163;-47
2022/12/24 08:52:50;;;;;;;;;;;;;;;15.65;49.91;100599.16;5099663;28;1173;-51
2022/12/24 08:55:15;;;;;;;;;;;;;;;16.47;48.32;100606.63;5099483;28;1057;-46
2022/12/24 08:57:41;;;;;;;;;;;;;;;17.23;46.04;100602.00;5099537;28;1098;-51
2022/12/24 09:00:06;;;;;;;;;;;;;;;16.22;48.55;100611.03;5099879;28;1055;-49
2022/12/24 09:02:32;;;;;;;;;;;;;;;15.84;49.44;100610.47;5098544;28;1141;-50
2022/12/24 09:04:57;;;;;;;;;;;;;;;15.71;49.74;100600.81;5099617;28;1980;-50
2022/12/24 09:07:24;;;;;;;;;;;;;;;15.87;49.73;100609.94;5099351;28;1205;-51
2022/12/24 09:09:49;;;;;;;;;;;;;;;17.26;45.84;100602.28;5099426;28;1098;-50
2022/12/24 09:12:14;;;;;;;;;;;;;;;16.27;48.43;100601.97;5086092;28;1224;-49
2022/12/24 09:14:40;;;;;;;;;;;;;;;15.88;49.34;100601.44;5098786;28;891;-51
2022/12/24 09:17:05;;;;;;;;;;;;;;;15.64;50.09;100601.09;5099201;28;1077;-50
2022/12/24 09:19:32;;;;;;;;;;;;;;;16.10;48.87;100602.25;5099223;28;1062;-51
2022/12/24 09:21:57;;;;;;;;;;;;;;;17.38;45.70;100604.69;5099496;28;1150;-51
2022/12/24 09:24:22;;;;;;;;;;;;;;;16.34;48.09;100597.84;5098371;28;1980;-49
2022/12/24 09:26:48;;;;;;;;;;;;;;;15.94;49.36;100590.47;5099028;28;1154;-52
2022/12/24 09:29:14;;;;;;;;;;;;;;;15.70;50.02;100588.22;5099256;28;1143;-50
2022/12/24 09:31:39;;;;;;;;;;;;;;;15.65;50.21;100586.28;5098850;28;1093;-50
2022/12/24 09:34:04;;;;;;;;;;;;;;;17.24;46.14;100584.44;5098716;28;1046;-49
2022/12/24 09:36:30;;;;;;;;;;;;;;;16.57;47.47;100587.38;5099258;28;1174;-51
2022/12/24 09:38:55;;;;;;;;;;;;;;;16.05;48.92;100581.97;5098709;28;972;-51
2022/12/24 09:41:21;;;;;;;;;;;;;;;15.81;49.75;100578.94;5099379;28;1128;-51
2022/12/24 09:43:47;;;;;;;;;;;;;;;15.61;49.95;100568.72;5097894;28;1964;-51
2022/12/24 09:46:15;;;;;;;;;;;;;;;15.71;50.11;100574.25;5097326;28;1118;-47
2022/12/24 09:48:42;;;;;;;;;;;;;;;17.26;45.97;100561.06;5098833;28;1062;-52
2022/12/24 09:51:09;;;;;;;;;;;;;;;16.48;47.94;100561.59;5097410;28;1090;-49
2022/12/24 09:53:46;;;;;;;;;;;;;;;15.95;49.26;100565.50;5098889;28;1108;-50
2022/12/24 09:56:14;;;;;;;;;;;;;;;16.18;48.72;100566.03;5084490;28;1106;-49
2022/12/24 09:58:40;;;;;;;;;;;;;;;17.31;45.74;100557.47;5098281;28;1408;-46
2022/12/24 10:01:06;;;;;;;;;;;;;;;16.35;48.41;100558.31;5097371;28;1167;-45
2022/12/24 10:03:31;;;;;;;;;;;;;;;15.97;49.34;100548.78;5097942;28;883;-51
2022/12/24 10:06:13;;;;;;;;;;;;;;;15.76;49.86;100556.97;5098211;28;1909;-45
2022/12/24 10:08:39;;;;;;;;;;;;;;;17.17;46.42;100553.69;5098078;28;1209;-50
2022/12/24 10:11:23;;;;;;;;;;;;;;;16.70;47.24;100540.09;5098011;28;1038;-51
2022/12/24 10:14:11;;;;;;;;;;;;;;;16.08;48.85;100540.25;5098206;28;1097;-48
2022/12/24 10:16:47;;;;;;;;;;;;;;;15.80;49.81;100538.09;5096564;28;1071;-51
2022/12/24 10:19:12;;;;;;;;;;;;;;;15.65;50.06;100533.38;5097135;28;1186;-53
2022/12/24 10:21:56;;;;;;;;;;;;;;;15.69;50.07;100542.72;5097633;28;1062;-54
2022/12/24 10:24:22;;;;;;;;;;;;;;;17.26;46.21;100525.34;5097606;28;1956;-56
2022/12/24 10:26:49;;;;;;;;;;;;;;;16.25;48.34;100530.91;5097294;28;1118;-55
2022/12/24 10:29:35;;;;;;;;;;;;;;;15.86;49.39;100532.31;5096672;28;1194;-55
2022/12/24 10:32:06;;;;;;;;;;;;;;;15.76;49.91;100528.75;5096852;28;1054;-53
2022/12/24 10:34:37;;;;;;;;;;;;;;;17.35;46.03;100517.31;5097053;28;1058;-57
2022/12/24 10:37:03;;;;;;;;;;;;;;;16.40;48.34;100524.56;5097517;28;1113;-53
2022/12/24 10:39:28;;;;;;;;;;;;;;;15.99;49.39;100525.47;5097001;28;1167;-52
2022/12/24 10:41:56;;;;;;;;;;;;;;;15.72;50.02;100520.22;5096960;28;1186;-52
2022/12/24 10:44:23;;;;;;;;;;;;;;;15.66;50.30;100526.81;5095704;28;1909;-53
2022/12/24 10:46:48;;;;;;;;;;;;;;;17.20;46.23;100531.16;5097272;28;1108;-53
2022/12/24 10:49:18;;;;;;;;;;;;;;;16.41;48.30;100527.03;5097761;28;1454;-52
2022/12/24 10:51:51;;;;;;;;;;;;;;;15.95;49.44;100527.13;5096827;28;899;-50
2022/12/24 10:54:21;;;;;;;;;;;;;;;15.70;50.11;100536.94;5095684;28;1147;-53
2022/12/24 10:56:49;;;;;;;;;;;;;;;15.51;50.62;100520.22;5096898;28;1055;-50
2022/12/24 10:59:21;;;;;;;;;;;;;;;15.89;49.76;100533.69;5097061;28;1038;-51
2022/12/24 11:01:47;;;;;;;;;;;;;;;17.35;46.05;100521.97;5095854;28;1063;-54
2022/12/24 11:04:16;;;;;;;;;;;;;;;16.37;48.49;100525.94;5095660;28;1910;-54
2022/12/24 11:06:54;;;;;;;;;;;;;;;15.91;49.54;100507.66;5096715;28;1138;-53
2022/12/24 11:09:21;;;;;;;;;;;;;;;15.67;50.07;100512.84;5096258;28;1062;-50
2022/12/24 11:11:47;;;;;;;;;;;;;;;15.47;50.86;100512.81;5097208;28;1140;-53
2022/12/24 11:14:13;;;;;;;;;;;;;;;15.38;51.07;100518.81;5095209;28;1114;-53
2022/12/24 11:16:39;;;;;;;;;;;;;;;16.95;46.90;100521.91;5096211;28;1185;-53
2022/12/24 11:19:05;;;;;;;;;;;;;;;16.69;47.58;100505.53;5095434;28;1538;-52
2022/12/24 11:21:34;;;;;;;;;;;;;;;15.99;49.17;100509.03;5097390;28;1120;-52
2022/12/24 11:24:03;;;;;;;;;;;;;;;15.71;50.12;100511.19;5095095;28;1910;-58
2022/12/24 11:26:28;;;;;;;;;;;;;;;15.85;49.78;100507.91;5096656;28;1237;-56
2022/12/24 11:29:04;;;;;;;;;;;;;;;17.37;46.27;100503.28;5096483;28;1129;-55
2022/12/24 11:31:31;;;;;;;;;;;;;;;16.69;47.63;100505.53;5096326;28;1114;-53
2022/12/24 11:33:57;;;;;;;;;;;;;;;16.10;49.29;100503.50;5096601;28;1050;-53
2022/12/24 11:36:22;;;;;;;;;;;;;;;15.84;49.93;100503.56;5096733;28;1065;-54
2022/12/24 11:38:54;;;;;;;;;;;;;;;15.67;50.11;100509.25;5077553;28;1186;-53
2022/12/24 11:41:20;;;;;;;;;;;;;;;16.31;48.80;100507.84;5096357;28;1184;-53
2022/12/24 11:43:46;;;;;;;;;;;;;;;17.37;45.83;100500.53;5096794;28;1228;-56
2022/12/24 11:46:12;;;;;;;;;;;;;;;16.35;48.55;100500.69;5095524;28;1102;-56
2022/12/24 11:48:38;;;;;;;;;;;;;;;15.96;49.46;100498.59;5096022;28;1050;-50
2022/12/24 11:51:04;;;;;;;;;;;;;;;15.74;50.23;100509.81;5096312;28;1105;-48
2022/12/24 11:53:35;;;;;;;;;;;;;;;15.55;50.70;100515.84;5096526;28;1133;-46
2022/12/24 11:56:01;;;;;;;;;;;;;;;16.36;48.88;100516.06;5095334;28;1008;-51
2022/12/24 11:58:36;;;;;;;;;;;;;;;17.23;46.29;100509.41;5096052;28;1070;-47
2022/12/24 12:01:21;;;;;;;;;;;;;;;16.24;48.60;100519.13;5083238;28;864;-49
2022/12/24 12:04:13;;;;;;;;;;;;;;;15.85;49.73;100508.75;5094221;28;1976;-51
2022/12/24 12:06:45;;;;;;;;;;;;;;;15.58;50.47;100514.47;5067382;28;1204;-46
2022/12/24 12:09:21;;;;;;;;;;;;;;;16.01;49.55;100509.56;5082882;28;1051;-54
2022/12/24 12:11:58;;;;;;;;;;;;;;;17.21;46.59;100510.81;5094710;28;1083;-53
2022/12/24 12:14:26;;;;;;;;;;;;;;;16.18;49.17;100500.22;5094898;28;1023;-51
2022/12/24 12:17:08;;;;;;;;;;;;;;;15.85;50.10;100502.44;5094981;28;902;-55
2022/12/24 12:19:39;;;;;;;;;;;;;;;15.59;50.58;100498.88;5098392;28;1206;-54
2022/12/24 12:22:06;;;;;;;;;;;;;;;15.71;50.53;100507.59;5079443;28;1214;-54
2022/12/24 12:24:39;;;;;;;;;;;;;;;17.25;46.68;100511.84;5092141;28;1906;-54
2022/12/24 12:27:28;;;;;;;;;;;;;;;16.28;48.81;100505.66;5086560;28;1075;-54
2022/12/24 12:29:58;;;;;;;;;;;;;;;15.81;50.07;100498.59;5088992;28;1882;-53
2022/12/24 12:32:47;;;;;;;;;;;;;;;15.62;50.52;100499.13;5098969;28;1189;-52
2022/12/24 12:35:32;;;;;;;;;;;;;;;15.92;49.82;100497.47;5080991;28;1205;-54
2022/12/24 12:38:05;;;;;;;;;;;;;;;17.44;45.97;100503.78;5098102;28;1611;-55
2022/12/24 12:40:53;;;;;;;;;;;;;;;16.38;48.52;100510.31;5099374;28;1036;-53
2022/12/24 12:43:31;;;;;;;;;;;;;;;15.88;50.05;100515.63;5070954;28;1247;-55
2022/12/24 12:46:15;;;;;;;;;;;;;;;15.66;50.42;100519.41;5099722;28;1980;-56
2022/12/24 12:48:49;;;;;;;;;;;;;;;17.21;46.62;100517.13;5099627;28;1069;-55
2022/12/24 12:51:18;;;;;;;;;;;;;;;16.41;48.40;100521.56;5097478;28;1048;-57
2022/12/24 12:53:48;;;;;;;;;;;;;;;15.95;49.64;100513.41;5098179;28;1090;-57
2022/12/24 12:56:14;;;;;;;;;;;;;;;15.69;50.67;100521.59;5099766;28;998;-58
2022/12/24 12:58:42;;;;;;;;;;;;;;;16.21;49.22;100522.41;5099452;28;1162;-59